createdAt,value
2022-08-03T00:07:00.459Z,43
2022-08-03T00:17:00.501Z,44
2022-08-03T00:27:00.453Z,45
2022-08-03T00:37:00.402Z,45
2022-08-03T00:47:00.419Z,45
2022-08-03T00:57:00.655Z,46
2022-08-03T01:07:00.330Z,46
2022-08-03T01:17:00.341Z,47
2022-08-03T01:27:00.321Z,47
2022-08-03T01:37:00.266Z,48
2022-08-03T01:47:00.284Z,48
2022-08-03T01:57:00.221Z,48
2022-08-03T02:07:03.169Z,49
2022-08-03T02:17:00.225Z,49
2022-08-03T02:27:00.152Z,50
2022-08-03T02:37:00.133Z,50
2022-08-03T02:47:00.143Z,51
2022-08-03T02:57:00.096Z,51
2022-08-03T03:07:00.079Z,51
2022-08-03T03:17:00.085Z,51
2022-08-03T03:27:00.038Z,52
2022-08-03T03:37:00.003Z,52
2022-08-03T03:47:00.021Z,52
2022-08-03T03:56:59.965Z,53
2022-08-03T04:06:59.941Z,53
2022-08-03T04:16:59.965Z,53
2022-08-03T04:26:59.906Z,54
2022-08-03T04:36:59.879Z,54
2022-08-03T04:46:59.899Z,55
2022-08-03T04:56:59.837Z,55
2022-08-03T05:06:59.812Z,55
2022-08-03T05:16:59.835Z,55
2022-08-03T05:26:59.773Z,55
2022-08-03T05:36:59.750Z,55
2022-08-03T05:46:59.764Z,55
2022-08-03T05:56:59.715Z,55
2022-08-03T06:06:59.700Z,55
2022-08-03T06:16:59.711Z,55
2022-08-03T06:26:59.683Z,55
2022-08-03T06:37:02.142Z,54
2022-08-03T06:46:59.601Z,54
2022-08-03T06:56:59.586Z,54
2022-08-03T07:06:59.556Z,54
2022-08-03T07:16:59.539Z,53
2022-08-03T07:26:59.542Z,53
2022-08-03T07:36:59.505Z,52
2022-08-03T07:46:59.484Z,52
2022-08-03T07:56:59.444Z,51
2022-08-03T08:06:59.429Z,51
2022-08-03T08:16:59.403Z,50
2022-08-03T08:26:59.423Z,50
2022-08-03T08:36:59.367Z,49
2022-08-03T08:46:59.342Z,49
2022-08-03T08:56:59.328Z,48
2022-08-03T09:07:19.259Z,47
2022-08-03T09:16:59.278Z,46
2022-08-03T09:26:59.285Z,45
2022-08-03T09:36:59.227Z,43
2022-08-03T09:46:59.201Z,41
2022-08-03T09:56:59.191Z,40
2022-08-03T10:06:59.210Z,38
2022-08-03T10:16:59.145Z,36
2022-08-03T10:26:59.164Z,35
2022-08-03T10:46:59.097Z,32
2022-08-03T10:57:13.396Z,31
2022-08-03T11:06:59.054Z,31
2022-08-03T11:16:59.067Z,30
2022-08-03T11:27:01.944Z,29
2022-08-03T11:36:58.997Z,28
2022-08-03T11:46:59.017Z,27
2022-08-03T11:56:59.002Z,27
2022-08-03T12:06:58.950Z,26
2022-08-03T12:16:58.961Z,26
2022-08-03T12:26:59.889Z,25
2022-08-03T12:36:58.892Z,25
2022-08-03T12:46:58.915Z,24
2022-08-03T12:56:58.915Z,23
2022-08-03T13:07:02.881Z,23
2022-08-03T13:16:58.867Z,22
2022-08-03T13:26:58.857Z,22
2022-08-03T13:37:08.868Z,22
2022-08-03T13:46:58.817Z,22
2022-08-03T13:58:05.300Z,22
2022-08-03T14:06:58.769Z,21
2022-08-03T14:16:58.784Z,21
2022-08-03T14:27:07.165Z,21
2022-08-03T14:36:58.720Z,21
2022-08-03T14:46:58.731Z,21
2022-08-03T14:56:58.719Z,21
2022-08-03T15:06:58.668Z,21
2022-08-03T15:16:58.688Z,21
2022-08-03T15:26:58.676Z,21
2022-08-03T15:36:58.616Z,21
2022-08-03T15:46:58.643Z,21
2022-08-03T15:56:58.585Z,21
2022-08-03T16:06:58.608Z,21
2022-08-03T16:16:58.583Z,22
2022-08-03T16:27:00.595Z,22
2022-08-03T16:36:58.517Z,22
2022-08-03T16:46:58.535Z,22
2022-08-03T16:56:58.477Z,22
2022-08-03T17:06:58.498Z,22
2022-08-03T17:16:58.496Z,22
2022-08-03T17:26:58.435Z,23
2022-08-03T17:37:05.525Z,23
2022-08-03T17:46:58.438Z,23
2022-08-03T17:56:58.366Z,23
2022-08-03T18:06:58.368Z,23
2022-08-03T18:16:58.363Z,24
2022-08-03T18:26:58.316Z,24
2022-08-03T18:36:58.302Z,25
2022-08-03T18:47:02.943Z,26
2022-08-03T18:56:58.264Z,26
2022-08-03T19:06:58.228Z,27
2022-08-03T19:16:58.244Z,28
2022-08-03T19:26:58.181Z,28
2022-08-03T19:36:58.176Z,29
2022-08-03T19:46:58.186Z,29
2022-08-03T19:56:58.131Z,30
2022-08-03T20:06:58.096Z,31
2022-08-03T20:16:58.109Z,31
2022-08-03T20:26:58.097Z,32
2022-08-03T20:36:58.029Z,33
2022-08-03T20:47:00.647Z,34
2022-08-03T20:56:58.157Z,34
2022-08-03T21:06:57.958Z,35
2022-08-03T21:16:57.935Z,35
2022-08-03T21:26:57.952Z,36
2022-08-03T21:36:57.901Z,37
2022-08-03T21:46:57.876Z,37
2022-08-03T21:56:57.882Z,38
2022-08-03T22:06:57.849Z,38
2022-08-03T22:16:57.802Z,39
2022-08-03T22:26:57.820Z,39
2022-08-03T22:37:00.448Z,39
2022-08-03T22:46:57.746Z,40
2022-08-03T22:56:57.749Z,41
2022-08-03T23:06:57.687Z,41
2022-08-03T23:16:57.669Z,42
2022-08-03T23:26:57.685Z,42
2022-08-03T23:36:57.714Z,43
2022-08-03T23:46:57.610Z,43
2022-08-03T23:56:57.613Z,44
